Time;durP1;ratioP1;P1;durP2;ratioP2;P2;SDS_P1;SDS_P2;PMS_P1;PMS_P2;Temp;Humidity;BMP_temperature;BMP_pressure;BME280_temperature;BME280_humidity;BME280_pressure;Samples;Min_cycle;Max_cycle;Signal;HPM_P1;HPM_P2
2021/05/31 00:01:55;;;;;;;7.78;3.65;;;12.70;99.90;;;;;;5032735;28;20100;-72
2021/05/31 00:04:21;;;;;;;3.95;3.55;;;12.60;99.90;;;;;;5033654;28;20386;-73
2021/05/31 00:07:11;;;;;;;4.00;3.50;;;12.50;99.90;;;;;;5033953;28;20477;-72
2021/05/31 00:09:38;;;;;;;4.97;3.40;;;12.50;99.90;;;;;;5032661;28;20021;-72
2021/05/31 00:12:07;;;;;;;4.53;3.30;;;12.50;99.90;;;;;;5032549;28;20260;-72
2021/05/31 00:14:34;;;;;;;6.10;3.42;;;12.50;99.90;;;;;;5032461;28;20032;-74
2021/05/31 00:17:00;;;;;;;3.85;3.53;;;12.50;99.90;;;;;;5031907;28;20107;-73
2021/05/31 00:19:26;;;;;;;5.28;3.53;;;12.60;99.90;;;;;;5033761;28;20116;-73
2021/05/31 00:21:52;;;;;;;4.25;3.72;;;12.50;99.90;;;;;;5033961;28;20096;-73
2021/05/31 00:24:18;;;;;;;8.93;4.00;;;12.60;99.90;;;;;;5032279;28;20104;-73
2021/05/31 00:26:45;;;;;;;4.47;3.33;;;12.50;99.90;;;;;;5031968;28;20025;-72
2021/05/31 00:29:11;;;;;;;5.88;3.55;;;12.40;99.90;;;;;;5032225;28;20474;-73
2021/05/31 00:31:37;;;;;;;4.70;3.40;;;12.40;99.90;;;;;;5032236;28;20112;-71
2021/05/31 00:34:04;;;;;;;4.88;3.33;;;12.30;99.90;;;;;;5033195;28;20466;-72
2021/05/31 00:36:30;;;;;;;3.63;3.22;;;12.30;99.90;;;;;;5033116;28;20427;-72
2021/05/31 00:38:56;;;;;;;4.97;3.47;;;12.30;99.90;;;;;;5033336;28;20057;-72
2021/05/31 00:41:22;;;;;;;5.57;3.35;;;12.20;99.90;;;;;;5033352;28;20037;-73
2021/05/31 00:43:49;;;;;;;6.03;4.30;;;12.20;99.90;;;;;;5032089;28;20032;-71
2021/05/31 00:46:15;;;;;;;5.15;4.07;;;12.10;99.90;;;;;;5031962;28;20030;-72
2021/05/31 00:48:42;;;;;;;4.60;3.95;;;12.00;99.90;;;;;;5031988;28;20033;-73
2021/05/31 00:51:10;;;;;;;4.63;3.40;;;12.10;99.90;;;;;;5031964;28;20091;-73
2021/05/31 00:53:36;;;;;;;8.32;3.55;;;12.00;99.90;;;;;;5033232;28;20032;-73
2021/05/31 00:56:03;;;;;;;5.30;4.15;;;12.10;99.90;;;;;;5031915;28;20382;-72
2021/05/31 00:58:30;;;;;;;4.10;3.53;;;12.10;99.90;;;;;;5032880;28;20068;-74
2021/05/31 01:00:58;;;;;;;5.20;3.67;;;12.00;99.90;;;;;;5031870;28;20036;-73
2021/05/31 01:03:26;;;;;;;4.32;3.80;;;12.10;99.90;;;;;;5031733;28;20532;-72
2021/05/31 01:05:54;;;;;;;6.28;3.70;;;12.00;99.90;;;;;;5031724;28;20025;-73
2021/05/31 01:08:26;;;;;;;5.65;3.22;;;12.00;99.90;;;;;;5032784;28;20426;-73
2021/05/31 01:11:19;;;;;;;4.72;3.67;;;11.90;99.90;;;;;;5033021;28;20022;-72
2021/05/31 01:14:13;;;;;;;4.70;3.83;;;11.90;99.90;;;;;;5033043;28;20148;-72
2021/05/31 01:16:51;;;;;;;5.40;3.65;;;11.90;99.90;;;;;;5010328;28;20053;-71
2021/05/31 01:19:49;;;;;;;5.60;3.85;;;12.00;99.90;;;;;;5010838;28;20030;-73
2021/05/31 01:22:16;;;;;;;4.30;3.88;;;11.90;99.90;;;;;;4994301;28;20112;-73
2021/05/31 01:24:51;;;;;;;4.30;3.60;;;11.90;99.90;;;;;;4994185;28;20511;-72
2021/05/31 01:27:20;;;;;;;5.15;3.42;;;11.80;99.90;;;;;;4994172;28;20042;-71
2021/05/31 01:30:11;;;;;;;4.68;4.22;;;11.80;99.90;;;;;;5010659;28;20022;-71
2021/05/31 01:32:41;;;;;;;4.57;3.63;;;11.70;99.90;;;;;;5000333;28;20073;-71
2021/05/31 01:35:11;;;;;;;7.07;4.13;;;11.70;99.90;;;;;;5010821;28;20042;-72
2021/05/31 01:37:40;;;;;;;4.43;3.45;;;11.60;99.90;;;;;;5010590;28;20124;-73
2021/05/31 01:40:08;;;;;;;4.38;3.70;;;11.60;99.90;;;;;;4994110;28;20045;-72
2021/05/31 01:42:34;;;;;;;5.07;3.60;;;11.60;99.90;;;;;;4994117;28;20026;-72
2021/05/31 01:45:01;;;;;;;6.28;3.60;;;11.60;99.90;;;;;;4993992;28;20109;-73
2021/05/31 01:47:29;;;;;;;4.07;3.67;;;11.60;99.90;;;;;;4993997;28;20076;-73
2021/05/31 01:49:55;;;;;;;4.30;3.90;;;11.50;99.90;;;;;;4994016;28;20033;-74
2021/05/31 01:52:25;;;;;;;8.70;3.45;;;11.60;99.90;;;;;;4997214;28;20037;-74
2021/05/31 01:54:58;;;;;;;7.75;4.05;;;11.60;99.90;;;;;;5035138;28;20025;-74
2021/05/31 01:57:24;;;;;;;3.88;3.47;;;11.60;99.90;;;;;;5034719;28;20029;-73
2021/05/31 01:59:51;;;;;;;5.97;3.60;;;11.70;99.90;;;;;;5036398;28;20116;-74
2021/05/31 02:02:18;;;;;;;3.63;3.33;;;11.70;99.90;;;;;;5035058;28;20033;-74
2021/05/31 02:04:44;;;;;;;5.53;3.22;;;11.70;99.90;;;;;;5036541;28;20029;-73
2021/05/31 02:07:11;;;;;;;7.57;3.72;;;11.70;99.90;;;;;;5034879;28;20486;-74
2021/05/31 02:09:38;;;;;;;5.28;3.65;;;11.70;99.90;;;;;;5036401;28;20091;-74
2021/05/31 02:12:05;;;;;;;4.28;3.78;;;11.80;99.90;;;;;;5034942;28;20088;-74
2021/05/31 02:14:45;;;;;;;4.22;3.70;;;11.80;99.90;;;;;;5036048;28;20018;-73
2021/05/31 02:17:28;;;;;;;5.20;3.95;;;11.80;99.90;;;;;;5036039;28;20053;-72
2021/05/31 02:19:58;;;;;;;5.95;3.58;;;11.70;99.90;;;;;;5034430;28;20030;-73
2021/05/31 02:22:25;;;;;;;6.25;3.90;;;11.80;99.90;;;;;;5034707;28;20056;-73
2021/05/31 02:24:54;;;;;;;4.43;3.30;;;11.70;99.90;;;;;;5035596;28;20377;-73
2021/05/31 02:27:21;;;;;;;4.78;3.70;;;11.70;99.90;;;;;;5034507;28;20037;-73
2021/05/31 02:29:47;;;;;;;4.20;3.60;;;11.70;99.90;;;;;;5035775;28;20472;-74
2021/05/31 02:32:12;;;;;;;6.20;3.85;;;11.70;99.90;;;;;;5034545;28;20120;-73
2021/05/31 02:34:38;;;;;;;8.10;3.97;;;11.60;99.90;;;;;;5034412;28;20029;-75
2021/05/31 02:37:06;;;;;;;3.67;3.30;;;11.70;99.90;;;;;;5034301;28;20387;-75
2021/05/31 02:39:32;;;;;;;5.32;3.78;;;11.60;99.90;;;;;;5035663;28;20378;-74
2021/05/31 02:41:58;;;;;;;5.40;3.67;;;11.60;99.90;;;;;;5034318;28;20026;-74
2021/05/31 02:44:24;;;;;;;7.07;4.05;;;11.50;99.90;;;;;;5034226;28;20083;-74
2021/05/31 02:46:50;;;;;;;5.93;3.80;;;11.50;99.90;;;;;;5034203;28;20026;-74
2021/05/31 02:49:15;;;;;;;6.40;4.07;;;11.50;99.90;;;;;;5035421;28;20021;-74
2021/05/31 02:51:43;;;;;;;6.38;3.67;;;11.50;99.90;;;;;;5034136;28;20034;-74
2021/05/31 02:54:09;;;;;;;6.22;3.83;;;11.50;99.90;;;;;;5034017;28;20026;-75
2021/05/31 02:56:35;;;;;;;5.55;3.90;;;11.50;99.90;;;;;;5035316;28;20025;-74
2021/05/31 02:59:01;;;;;;;5.97;3.58;;;11.50;99.90;;;;;;5033852;28;20037;-74
2021/05/31 03:01:26;;;;;;;5.07;3.63;;;11.50;99.90;;;;;;5035308;28;20025;-71
2021/05/31 03:03:52;;;;;;;4.95;3.80;;;11.50;99.90;;;;;;5034511;28;20421;-72
2021/05/31 03:06:18;;;;;;;6.55;4.07;;;11.50;99.90;;;;;;5035104;28;20032;-72
2021/05/31 03:08:44;;;;;;;6.15;4.55;;;11.50;99.90;;;;;;5035097;28;20034;-74
2021/05/31 03:11:10;;;;;;;5.53;3.85;;;11.50;99.90;;;;;;5035068;28;20029;-74
2021/05/31 03:13:36;;;;;;;5.07;4.13;;;11.60;99.90;;;;;;5035271;28;20076;-73
2021/05/31 03:16:02;;;;;;;5.57;4.10;;;11.60;99.90;;;;;;5034771;28;20041;-74
2021/05/31 03:18:28;;;;;;;5.80;4.22;;;11.60;99.90;;;;;;5034858;28;20634;-73
2021/05/31 03:20:54;;;;;;;6.10;4.55;;;11.70;99.90;;;;;;5035218;28;20029;-74
2021/05/31 03:23:19;;;;;;;4.80;3.88;;;11.70;99.90;;;;;;5034789;28;20483;-73
2021/05/31 03:25:45;;;;;;;5.82;3.90;;;11.70;99.90;;;;;;5034779;28;20034;-73
2021/05/31 03:28:11;;;;;;;6.47;4.40;;;11.70;99.90;;;;;;5034435;28;20547;-74
2021/05/31 03:30:37;;;;;;;7.65;4.60;;;11.70;99.90;;;;;;5033393;28;20021;-72
2021/05/31 03:33:03;;;;;;;6.28;4.82;;;11.70;99.90;;;;;;5034701;28;20489;-74
2021/05/31 03:35:30;;;;;;;7.35;4.15;;;11.70;99.90;;;;;;5034621;28;20029;-72
2021/05/31 03:37:56;;;;;;;5.13;4.03;;;11.70;99.90;;;;;;5034408;28;20091;-72
2021/05/31 03:40:22;;;;;;;5.85;4.70;;;11.70;99.90;;;;;;5034470;28;20479;-72
2021/05/31 03:42:55;;;;;;;5.50;3.90;;;11.70;99.90;;;;;;5033197;28;20026;-72
2021/05/31 03:45:22;;;;;;;6.78;4.38;;;11.80;99.90;;;;;;5034463;28;20029;-71
2021/05/31 03:47:48;;;;;;;6.72;4.30;;;11.80;99.90;;;;;;5033019;28;20083;-72
2021/05/31 03:50:15;;;;;;;4.93;4.07;;;11.70;99.90;;;;;;5034258;28;20100;-72
2021/05/31 03:52:41;;;;;;;5.43;4.05;;;11.80;99.90;;;;;;5034315;28;20060;-72
2021/05/31 03:55:08;;;;;;;5.57;4.47;;;11.70;99.90;;;;;;5032880;28;20028;-72
2021/05/31 03:57:36;;;;;;;6.78;4.68;;;11.80;99.90;;;;;;5032710;28;20070;-72
2021/05/31 04:00:04;;;;;;;7.68;4.80;;;11.80;99.90;;;;;;5032820;28;20546;-72
2021/05/31 04:02:30;;;;;;;5.85;4.70;;;11.80;99.90;;;;;;5033660;28;20467;-72
2021/05/31 04:04:57;;;;;;;5.55;4.75;;;11.80;99.90;;;;;;5032698;28;20029;-72
2021/05/31 04:12:54;;;;;;;6.15;4.40;;;11.80;99.90;;;;;;5033668;28;20451;-72
2021/05/31 04:15:20;;;;;;;5.10;4.38;;;11.80;99.90;;;;;;5032904;28;20029;-72
2021/05/31 04:17:46;;;;;;;5.35;4.18;;;11.80;99.90;;;;;;5033772;28;20040;-72
2021/05/31 04:20:15;;;;;;;4.63;4.18;;;11.80;99.90;;;;;;5032402;28;20080;-72
2021/05/31 04:22:43;;;;;;;5.03;4.43;;;11.90;99.90;;;;;;5033764;28;20075;-73
2021/05/31 04:25:09;;;;;;;6.05;4.90;;;11.90;99.90;;;;;;5033367;28;20394;-73
2021/05/31 04:27:35;;;;;;;6.80;5.47;;;11.90;99.90;;;;;;5033532;28;20061;-72
2021/05/31 04:30:01;;;;;;;8.95;5.70;;;11.90;99.90;;;;;;5033568;28;20083;-72
2021/05/31 04:32:27;;;;;;;7.15;4.78;;;12.00;99.90;;;;;;5032260;28;20359;-72
2021/05/31 04:34:52;;;;;;;6.05;4.85;;;12.00;99.90;;;;;;5032159;28;20112;-72
2021/05/31 04:37:19;;;;;;;11.05;5.13;;;12.10;99.90;;;;;;5033353;28;20046;-72
2021/05/31 04:39:45;;;;;;;9.20;5.20;;;12.10;99.90;;;;;;5033455;28;20478;-72
2021/05/31 04:42:11;;;;;;;7.95;4.97;;;12.10;99.90;;;;;;5033453;28;20502;-72
2021/05/31 04:44:37;;;;;;;5.47;4.88;;;12.20;99.90;;;;;;5031988;28;20471;-72
2021/05/31 04:47:04;;;;;;;7.07;5.05;;;12.30;99.90;;;;;;5032000;28;20036;-72
2021/05/31 04:49:32;;;;;;;5.75;4.90;;;12.30;99.90;;;;;;5032013;28;20033;-72
2021/05/31 04:51:58;;;;;;;6.30;4.57;;;12.30;99.90;;;;;;5033251;28;20022;-72
2021/05/31 04:54:24;;;;;;;7.85;4.97;;;12.30;99.90;;;;;;5033190;28;20104;-72
2021/05/31 04:56:50;;;;;;;8.93;4.80;;;12.40;99.90;;;;;;5033469;28;20144;-72
2021/05/31 04:59:15;;;;;;;6.88;4.82;;;12.30;99.90;;;;;;5033027;28;20052;-72
2021/05/31 05:01:41;;;;;;;8.20;4.70;;;12.40;99.90;;;;;;5033101;28;20026;-72
2021/05/31 05:04:07;;;;;;;9.35;4.50;;;12.50;99.90;;;;;;5033025;28;20029;-72
2021/05/31 05:06:34;;;;;;;6.30;5.00;;;12.50;99.90;;;;;;5032894;28;20100;-73
2021/05/31 05:09:00;;;;;;;5.90;4.30;;;12.50;99.90;;;;;;5033005;28;20025;-72
2021/05/31 05:11:26;;;;;;;8.63;4.80;;;12.40;99.90;;;;;;5033254;28;20030;-72
2021/05/31 05:13:52;;;;;;;5.03;4.53;;;12.30;99.90;;;;;;5032906;28;20379;-73
2021/05/31 05:16:19;;;;;;;8.73;4.88;;;12.40;99.90;;;;;;5032786;28;20049;-72
2021/05/31 05:18:47;;;;;;;7.72;4.85;;;12.50;99.90;;;;;;5031368;28;20041;-72
2021/05/31 05:21:16;;;;;;;6.03;4.63;;;12.60;99.90;;;;;;5031495;28;20025;-72
2021/05/31 05:23:44;;;;;;;6.43;4.65;;;12.80;99.90;;;;;;5032847;28;20022;-73
2021/05/31 05:26:10;;;;;;;7.88;5.03;;;12.90;99.90;;;;;;5034720;28;20108;-72
2021/05/31 05:28:37;;;;;;;5.93;4.53;;;13.00;99.90;;;;;;5035588;28;20033;-73
2021/05/31 05:31:07;;;;;;;5.57;4.35;;;13.20;99.90;;;;;;5035564;28;20033;-73
2021/05/31 05:33:37;;;;;;;7.20;5.00;;;13.20;99.90;;;;;;5035642;28;20421;-72
2021/05/31 05:47:32;;;;;;;5.20;4.40;;;13.50;99.90;;;;;;5036476;28;20467;-73
2021/05/31 05:49:38;;;;;;;5.30;4.60;;;13.50;99.90;;;;;;5036008;28;20462;-72
2021/05/31 05:52:04;;;;;;;5.82;4.10;;;13.50;99.90;;;;;;5035096;28;20081;-72
2021/05/31 05:54:30;;;;;;;6.93;3.83;;;13.40;99.90;;;;;;5036115;28;20030;-73
2021/05/31 05:56:56;;;;;;;8.93;4.82;;;13.50;99.90;;;;;;5036602;28;20029;-72
2021/05/31 05:59:22;;;;;;;6.28;4.22;;;13.60;99.90;;;;;;5036267;28;20034;-72
2021/05/31 06:01:50;;;;;;;5.47;4.40;;;13.80;99.90;;;;;;5036193;28;20025;-71
2021/05/31 06:04:17;;;;;;;5.00;4.05;;;13.90;99.90;;;;;;5035022;28;20470;-72
2021/05/31 06:06:46;;;;;;;4.13;3.70;;;13.90;99.90;;;;;;5036209;28;20030;-73
2021/05/31 06:09:15;;;;;;;16.75;4.47;;;14.00;99.90;;;;;;5034910;28;20030;-73
2021/05/31 06:11:41;;;;;;;5.60;4.07;;;14.00;99.90;;;;;;5036174;28;20057;-73
2021/05/31 06:14:09;;;;;;;5.72;3.92;;;14.10;99.90;;;;;;5036134;28;20018;-73
2021/05/31 06:16:35;;;;;;;5.10;4.25;;;14.10;99.90;;;;;;5035954;28;20283;-73
2021/05/31 06:19:01;;;;;;;4.43;3.97;;;14.20;99.90;;;;;;5034576;28;20065;-73
2021/05/31 06:21:27;;;;;;;6.68;4.45;;;14.10;99.90;;;;;;5035931;28;20025;-72
2021/05/31 06:23:54;;;;;;;5.60;4.00;;;14.00;99.90;;;;;;5034657;28;20533;-73
2021/05/31 06:26:20;;;;;;;9.43;4.38;;;13.90;99.90;;;;;;5035845;28;20049;-73
2021/05/31 06:28:46;;;;;;;7.97;4.78;;;13.80;99.90;;;;;;5034511;28;20055;-72
2021/05/31 06:31:13;;;;;;;8.63;4.78;;;13.70;99.90;;;;;;5034501;28;20091;-73
2021/05/31 06:33:39;;;;;;;4.32;3.38;;;13.60;99.90;;;;;;5034341;28;20025;-72
2021/05/31 06:36:08;;;;;;;4.07;3.67;;;13.50;99.90;;;;;;5034423;28;20036;-73
2021/05/31 06:38:34;;;;;;;4.90;4.05;;;13.40;99.90;;;;;;5034771;28;20032;-74
2021/05/31 06:41:02;;;;;;;4.75;3.83;;;13.40;99.90;;;;;;5034110;28;20028;-72
2021/05/31 06:43:28;;;;;;;10.27;6.65;;;13.40;99.90;;;;;;5035561;28;20063;-73
2021/05/31 06:45:55;;;;;;;8.15;6.15;;;13.30;99.90;;;;;;5035538;28;20026;-73
2021/05/31 06:48:21;;;;;;;5.97;4.25;;;13.30;99.90;;;;;;5035461;28;20033;-73
2021/05/31 06:50:47;;;;;;;5.25;4.13;;;13.30;99.90;;;;;;5033966;28;20385;-72
2021/05/31 06:53:13;;;;;;;5.15;4.53;;;13.30;99.90;;;;;;5035338;28;20040;-73
2021/05/31 06:55:41;;;;;;;7.50;4.32;;;13.40;99.90;;;;;;5035030;28;20029;-72
2021/05/31 06:58:07;;;;;;;10.02;6.10;;;13.40;99.90;;;;;;5035150;28;20079;-72
2021/05/31 07:00:33;;;;;;;9.70;5.00;;;13.50;99.90;;;;;;5035771;28;20049;-72
2021/05/31 07:02:59;;;;;;;5.15;4.00;;;13.50;99.90;;;;;;5033899;28;20026;-71
2021/05/31 07:05:25;;;;;;;5.78;4.60;;;13.50;99.90;;;;;;5033773;28;20037;-74
2021/05/31 07:07:52;;;;;;;6.97;4.72;;;13.60;99.90;;;;;;5033769;28;20034;-74
2021/05/31 07:10:27;;;;;;;4.65;4.20;;;13.70;99.90;;;;;;5035025;28;20036;-72
2021/05/31 07:12:54;;;;;;;5.40;4.18;;;13.80;99.90;;;;;;5034953;28;20017;-72
2021/05/31 07:15:20;;;;;;;5.32;4.25;;;13.90;99.90;;;;;;5032593;28;20037;-71
2021/05/31 07:17:47;;;;;;;4.03;3.58;;;14.00;99.90;;;;;;5033531;28;20485;-71
2021/05/31 07:20:15;;;;;;;4.82;4.10;;;14.00;99.90;;;;;;5033265;28;20036;-71
2021/05/31 07:22:43;;;;;;;6.13;4.10;;;14.20;99.90;;;;;;5034744;28;20026;-72
2021/05/31 07:25:11;;;;;;;5.15;4.10;;;14.30;99.90;;;;;;5034772;28;20025;-72
2021/05/31 07:27:37;;;;;;;6.47;4.82;;;14.50;99.90;;;;;;5033329;28;20463;-71
2021/05/31 07:30:04;;;;;;;5.78;4.43;;;14.70;99.90;;;;;;5033028;28;20063;-71
2021/05/31 07:32:30;;;;;;;3.28;2.97;;;14.90;99.90;;;;;;5034743;28;20065;-71
2021/05/31 07:34:56;;;;;;;4.03;3.63;;;15.20;99.90;;;;;;5033317;28;20061;-71
2021/05/31 07:37:22;;;;;;;4.78;2.70;;;15.40;99.90;;;;;;5034370;28;20059;-71
2021/05/31 07:39:48;;;;;;;5.72;3.17;;;15.30;99.90;;;;;;5034424;28;20522;-71
2021/05/31 07:42:14;;;;;;;5.43;3.60;;;15.20;99.90;;;;;;5034415;28;20080;-70
2021/05/31 07:44:40;;;;;;;7.60;4.57;;;15.10;99.90;;;;;;5033136;28;20078;-72
2021/05/31 07:47:06;;;;;;;4.00;3.40;;;15.20;99.90;;;;;;5034272;28;20109;-74
2021/05/31 07:49:32;;;;;;;3.22;2.88;;;15.10;99.90;;;;;;5033105;28;20033;-72
2021/05/31 07:52:07;;;;;;;3.60;3.25;;;14.70;99.90;;;;;;5034125;28;20091;-72
2021/05/31 07:54:34;;;;;;;3.28;2.78;;;;;;;;;;5032840;28;20044;-73
2021/05/31 07:57:00;;;;;;;1.55;1.50;;;;;;;;;;5034353;28;20100;-71
2021/05/31 07:59:27;;;;;;;3.20;1.67;;;;;;;;;;5034002;28;20037;-73
2021/05/31 08:01:53;;;;;;;2.78;1.92;;;;;;;;;;5032500;28;20030;-72
2021/05/31 08:04:19;;;;;;;2.60;2.40;;;;;;;;;;5032663;28;20153;-74
2021/05/31 08:06:46;;;;;;;4.30;3.10;;;;;;;;;;5033930;28;20498;-72
2021/05/31 08:09:12;;;;;;;5.40;3.22;;;;;;;;;;5033852;28;20116;-74
2021/05/31 08:11:38;;;;;;;3.05;2.67;;;;;;;;;;5033649;28;20028;-74
2021/05/31 08:14:04;;;;;;;7.70;4.72;;;;;;;;;;5032505;28;20029;-73
2021/05/31 08:16:31;;;;;;;3.47;2.47;;;;;;;;;;5033748;28;20053;-73
2021/05/31 08:18:57;;;;;;;2.70;2.50;;;;;;;;;;5032254;28;20087;-74
2021/05/31 08:21:23;;;;;;;1.33;1.23;;;;;;;;;;5033560;28;20105;-74
2021/05/31 08:23:49;;;;;;;0.95;0.95;;;14.00;99.90;;;;;;5032287;28;20504;-74
2021/05/31 08:26:20;;;;;;;1.08;0.85;;;14.00;99.90;;;;;;5033741;28;20116;-74
2021/05/31 08:28:47;;;;;;;1.55;1.25;;;14.10;99.90;;;;;;5032139;28;20037;-74
2021/05/31 08:31:13;;;;;;;1.30;1.20;;;14.40;99.90;;;;;;5032169;28;20033;-73
2021/05/31 08:33:39;;;;;;;1.80;1.70;;;14.30;99.90;;;;;;5032121;28;20053;-73
2021/05/31 08:36:05;;;;;;;4.40;1.60;;;14.20;99.90;;;;;;5031881;28;20061;-74
2021/05/31 08:38:32;;;;;;;1.52;1.38;;;14.00;99.90;;;;;;5031606;28;20056;-74
2021/05/31 08:40:58;;;;;;;2.47;1.00;;;14.20;99.90;;;;;;5031114;28;20025;-73
2021/05/31 08:43:24;;;;;;;1.02;1.02;;;14.20;99.90;;;;;;5033154;28;20478;-72
2021/05/31 08:45:50;;;;;;;0.88;0.80;;;14.00;99.90;;;;;;5033248;28;20037;-75
2021/05/31 08:48:17;;;;;;;1.00;1.00;;;14.10;99.90;;;;;;5033488;28;20045;-75
2021/05/31 08:50:43;;;;;;;1.10;1.10;;;14.10;99.90;;;;;;5033247;28;20021;-72
2021/05/31 08:53:10;;;;;;;2.05;1.55;;;14.30;99.90;;;;;;5033070;28;20029;-72
2021/05/31 08:55:36;;;;;;;1.17;1.05;;;14.40;99.90;;;;;;5033214;28;20036;-71
2021/05/31 08:58:03;;;;;;;6.30;1.67;;;14.50;99.90;;;;;;5031709;28;20033;-72
2021/05/31 09:00:32;;;;;;;1.25;1.08;;;14.70;99.90;;;;;;5032757;28;20021;-72
2021/05/31 09:03:01;;;;;;;2.20;1.40;;;14.90;99.90;;;;;;5033032;28;20029;-70
2021/05/31 09:05:32;;;;;;;1.63;1.52;;;14.90;99.90;;;;;;5031796;28;20029;-70
2021/05/31 09:08:03;;;;;;;1.20;1.10;;;15.00;99.90;;;;;;5033073;28;20112;-74
2021/05/31 09:10:34;;;;;;;0.88;0.88;;;15.10;99.90;;;;;;5032623;28;20040;-72
2021/05/31 09:13:02;;;;;;;1.13;0.85;;;15.40;99.90;;;;;;5031732;28;20112;-71
2021/05/31 09:15:28;;;;;;;0.93;0.90;;;15.40;99.90;;;;;;5032717;28;20042;-72
2021/05/31 09:17:54;;;;;;;0.70;0.70;;;15.60;99.90;;;;;;5032927;28;20068;-72
2021/05/31 09:20:20;;;;;;;1.10;0.75;;;15.60;99.90;;;;;;5032828;28;20375;-73
2021/05/31 09:22:47;;;;;;;1.10;1.00;;;15.60;99.90;;;;;;5032798;28;20132;-72
2021/05/31 09:25:34;;;;;;;0.68;0.68;;;15.40;99.90;;;;;;5031596;28;20470;-73
2021/05/31 09:28:09;;;;;;;0.70;0.70;;;15.30;99.90;;;;;;5032746;28;20026;-73
2021/05/31 09:30:40;;;;;;;1.00;0.90;;;15.20;99.90;;;;;;5033149;28;20072;-74
2021/05/31 09:33:12;;;;;;;1.00;1.00;;;15.50;99.90;;;;;;5031450;28;20367;-71
2021/05/31 09:35:40;;;;;;;0.80;0.80;;;15.40;99.90;;;;;;5032767;28;20026;-70
2021/05/31 09:38:06;;;;;;;1.13;0.90;;;15.20;99.90;;;;;;5032508;28;20038;-73
2021/05/31 09:40:32;;;;;;;0.75;0.75;;;15.20;99.90;;;;;;5031476;28;20437;-72
2021/05/31 09:43:03;;;;;;;0.93;0.93;;;15.20;99.90;;;;;;5031560;28;20467;-72
2021/05/31 09:45:30;;;;;;;0.70;0.70;;;15.30;99.90;;;;;;5031361;28;20471;-73
2021/05/31 09:48:03;;;;;;;0.85;0.85;;;15.40;99.90;;;;;;5031229;28;20095;-73
2021/05/31 09:50:32;;;;;;;1.73;1.38;;;15.30;99.90;;;;;;5032608;28;20458;-72
2021/05/31 09:53:06;;;;;;;1.40;1.30;;;15.00;99.90;;;;;;5032207;28;20048;-74
2021/05/31 09:55:39;;;;;;;5.55;1.42;;;14.90;99.90;;;;;;5032587;28;20462;-74
2021/05/31 09:58:13;;;;;;;1.40;1.30;;;14.80;99.90;;;;;;5032479;28;20026;-74
2021/05/31 10:00:40;;;;;;;2.17;1.40;;;14.70;99.90;;;;;;5031222;28;20033;-73
2021/05/31 10:05:59;;;;;;;1.20;1.10;;;14.60;99.90;;;;;;5032405;28;20036;-72
2021/05/31 10:11:01;;;;;;;1.17;1.00;;;14.70;99.90;;;;;;5032109;28;20462;-71
2021/05/31 10:13:29;;;;;;;2.75;1.75;;;14.50;99.90;;;;;;5034310;28;20377;-71
2021/05/31 10:15:56;;;;;;;1.77;1.63;;;14.30;99.90;;;;;;5034249;28;20042;-71
2021/05/31 10:18:25;;;;;;;2.97;1.75;;;14.20;99.90;;;;;;5034572;28;20128;-74
2021/05/31 10:20:51;;;;;;;1.58;1.30;;;14.20;99.90;;;;;;5035842;28;20048;-73
2021/05/31 10:23:17;;;;;;;2.30;2.08;;;14.30;99.90;;;;;;5034537;28;20064;-73
2021/05/31 10:25:50;;;;;;;2.22;2.05;;;14.50;99.90;;;;;;5034561;28;20029;-72
2021/05/31 10:28:20;;;;;;;3.83;2.28;;;14.70;99.90;;;;;;5035866;28;20087;-72
2021/05/31 10:31:06;;;;;;;1.65;1.55;;;14.80;99.90;;;;;;5035646;28;20026;-72
2021/05/31 10:33:39;;;;;;;3.92;2.10;;;15.00;99.90;;;;;;5035411;28;20371;-75
2021/05/31 10:36:18;;;;;;;2.35;1.88;;;15.20;99.90;;;;;;5035664;28;20022;-73
2021/05/31 10:38:50;;;;;;;1.70;1.60;;;15.20;99.90;;;;;;5034292;28;20065;-74
2021/05/31 10:41:18;;;;;;;2.10;1.83;;;15.30;99.90;;;;;;5034319;28;20029;-71
2021/05/31 11:26:07;;;;;;;1.88;1.30;;;17.80;99.90;;;;;;5125629;27;20933;-69
2021/05/31 11:28:33;;;;;;;1.80;1.70;;;17.60;99.90;;;;;;5095565;28;20106;-69
2021/05/31 11:30:59;;;;;;;1.20;1.10;;;17.40;99.90;;;;;;5092278;28;20024;-70
2021/05/31 11:33:25;;;;;;;1.13;1.00;;;16.90;99.90;;;;;;5092191;28;20077;-71
2021/05/31 11:35:51;;;;;;;1.30;1.20;;;16.90;99.90;;;;;;5110551;28;20540;-70
2021/05/31 11:38:20;;;;;;;1.60;1.50;;;16.90;99.90;;;;;;5092223;28;20097;-70
2021/05/31 11:40:46;;;;;;;1.50;1.40;;;16.90;99.90;;;;;;5110480;28;20093;-71
2021/05/31 11:43:14;;;;;;;2.38;2.17;;;16.50;99.90;;;;;;5110693;28;20073;-71
2021/05/31 11:45:41;;;;;;;1.63;1.52;;;16.30;99.90;;;;;;5110383;28;20371;-71
2021/05/31 11:48:09;;;;;;;1.48;1.38;;;;;;;;;;5110199;28;20107;-70
2021/05/31 11:50:36;;;;;;;3.05;2.15;;;;;;;;;;5091971;28;20399;-70
2021/05/31 11:53:03;;;;;;;6.70;2.90;;;;;;;;;;5110131;28;20513;-71
2021/05/31 11:55:30;;;;;;;2.17;1.83;;;;;;;;;;5109862;28;20043;-70
2021/05/31 11:57:57;;;;;;;2.08;1.48;;;;;;;;;;5091812;28;20057;-70
2021/05/31 12:00:24;;;;;;;3.03;1.27;;;;;;;;;;5110122;28;20020;-71
2021/05/31 12:02:51;;;;;;;1.73;1.33;;;;;;;;;;5109961;28;20098;-70
2021/05/31 12:05:38;;;;;;;2.97;2.00;;;;;;;;;;5091341;28;20028;-70
2021/05/31 12:08:10;;;;;;;2.60;1.70;;;;;;;;;;5091520;28;20106;-70
2021/05/31 12:10:43;;;;;;;1.60;1.50;;;16.50;99.90;;;;;;5109853;28;20028;-70
2021/05/31 12:13:10;;;;;;;2.10;1.15;;;16.60;99.90;;;;;;5109788;28;20107;-71
2021/05/31 12:15:38;;;;;;;1.88;1.77;;;16.80;99.90;;;;;;5109597;28;20093;-70
2021/05/31 12:18:15;;;;;;;1.38;1.13;;;16.80;99.90;;;;;;5109650;28;20024;-71
2021/05/31 12:20:42;;;;;;;1.52;1.20;;;;;;;;;;5091214;28;20110;-70
2021/05/31 12:23:15;;;;;;;0.98;0.98;;;;;;;;;;5109772;28;20085;-70
2021/05/31 12:25:41;;;;;;;1.20;1.15;;;19.40;99.90;;;;;;5103040;28;20066;-70
2021/05/31 12:28:07;;;;;;;1.23;1.10;;;19.20;99.90;;;;;;5077562;28;20476;-71
2021/05/31 12:30:33;;;;;;;1.45;1.35;;;;;;;;;;5095544;28;20032;-71
2021/05/31 12:33:09;;;;;;;1.95;1.40;;;20.50;99.70;;;;;;5077842;28;20414;-70
2021/05/31 12:35:35;;;;;;;1.55;1.35;;;;;;;;;;5095755;28;20103;-71
2021/05/31 12:38:01;;;;;;;1.58;1.25;;;19.30;98.80;;;;;;5077273;28;20024;-70
2021/05/31 12:40:28;;;;;;;1.85;1.65;;;18.60;99.90;;;;;;5095771;28;20104;-72
2021/05/31 12:42:54;;;;;;;1.35;1.20;;;;;;;;;;5077291;28;20074;-71
2021/05/31 12:45:21;;;;;;;1.70;1.60;;;20.40;96.70;;;;;;5093945;28;20058;-70
2021/05/31 12:47:49;;;;;;;4.88;1.80;;;18.60;99.00;;;;;;5095004;28;20074;-70
2021/05/31 12:50:30;;;;;;;1.45;1.35;;;18.50;98.90;;;;;;5095168;28;20035;-69
2021/05/31 12:53:08;;;;;;;1.30;1.20;;;17.90;99.80;;;;;;5074885;28;20060;-70
2021/05/31 12:55:35;;;;;;;1.92;1.45;;;17.40;99.90;;;;;;5075196;28;20033;-73
2021/05/31 12:58:10;;;;;;;1.65;1.50;;;17.10;99.90;;;;;;5075049;28;20032;-70
2021/05/31 13:00:36;;;;;;;2.13;1.70;;;16.70;99.90;;;;;;5075057;28;20086;-70
2021/05/31 13:03:02;;;;;;;2.33;1.80;;;16.40;99.90;;;;;;5056915;28;20473;-71
2021/05/31 13:05:31;;;;;;;2.38;1.75;;;16.30;99.90;;;;;;5074957;28;20086;-71
2021/05/31 13:08:00;;;;;;;1.63;1.40;;;16.30;99.90;;;;;;5075044;28;20486;-72
2021/05/31 13:10:31;;;;;;;2.38;1.35;;;16.30;99.90;;;;;;5056976;28;20075;-72
2021/05/31 13:13:14;;;;;;;3.72;1.33;;;16.30;99.90;;;;;;5075018;28;20029;-72
2021/05/31 13:15:45;;;;;;;1.65;1.55;;;16.10;99.90;;;;;;5074892;28;20040;-70
2021/05/31 13:18:21;;;;;;;5.90;2.20;;;16.10;99.90;;;;;;5056777;28;20024;-70
2021/05/31 13:20:53;;;;;;;2.67;2.05;;;16.20;99.90;;;;;;5078465;28;20028;-68
2021/05/31 13:23:19;;;;;;;;;;;17.10;99.90;;;;;;5095307;28;20107;-70
2021/05/31 13:25:50;;;;;;;6.50;1.98;;;17.40;99.90;;;;;;5106785;28;19916;-72
2021/05/31 13:28:21;;;;;;;1.35;1.25;;;22.00;94.80;;;;;;5074780;28;20020;-71
2021/05/31 13:30:54;;;;;;;2.70;2.00;;;21.50;92.90;;;;;;5074798;28;20048;-70
2021/05/31 13:33:25;;;;;;;2.80;2.03;;;19.70;94.00;;;;;;5074834;28;20024;-73
2021/05/31 13:35:51;;;;;;;2.38;1.88;;;19.10;95.30;;;;;;5074536;28;20120;-73
2021/05/31 13:38:17;;;;;;;3.15;2.05;;;18.00;97.70;;;;;;5073485;28;20025;-73
2021/05/31 13:40:48;;;;;;;3.13;2.30;;;17.70;98.80;;;;;;5074515;28;20028;-72
2021/05/31 13:43:22;;;;;;;5.32;2.60;;;17.30;99.90;;;;;;5074391;28;20031;-73
2021/05/31 13:45:51;;;;;;;2.42;2.22;;;17.20;99.90;;;;;;5073952;28;20386;-72
2021/05/31 13:48:18;;;;;;;2.63;1.85;;;16.90;99.90;;;;;;5074136;28;20024;-70
2021/05/31 13:50:46;;;;;;;2.22;2.03;;;16.70;99.90;;;;;;5074259;28;20033;-72
2021/05/31 13:53:13;;;;;;;2.20;2.00;;;;;;;;;;5074132;28;20028;-72
2021/05/31 13:55:39;;;;;;;2.60;2.25;;;;;;;;;;5072387;28;20051;-70
2021/05/31 13:58:06;;;;;;;2.45;2.10;;;;;;;;;;5073546;28;20082;-72
2021/05/31 14:00:32;;;;;;;3.83;2.45;;;18.20;99.60;;;;;;5062040;28;20032;-70
2021/05/31 14:02:59;;;;;;;2.00;1.90;;;17.90;99.50;;;;;;5052431;28;20458;-71
2021/05/31 14:05:29;;;;;;;2.22;2.00;;;17.60;99.50;;;;;;5053881;28;20033;-70